Monday, April 23, 2018, 1:49 AM GMT
Back to Local

CXCH, Cheticamp, N. S.

Location: , , Canada Lat: 46.65
Local Time: 1:49 AM GMT ( 1:49 GMT) Lon: -60.95
Time Zone: GMT Elev: 144 ft

Show me the last for .
Show Coded

Time T Td Feel RH Dir Speed Gust Alt SLP Vis Weather Sky Remarks
2018-04-23 01:00 28 26 - 90 - - - - - 0 None
2018-04-23 00:00 29 25 - 86 - - - - - 0 None
2018-04-22 23:00 32 25 - 77 - - - - - 0 None
2018-04-22 22:00 37 29 - 71 - - - - - 0 None
2018-04-22 21:00 40 28 - 61 - - - - - 0 None
2018-04-22 20:00 40 31 - 72 - - - - - 0 None
2018-04-22 19:00 41 29 - 62 - - - - - 0 None
2018-04-22 18:00 39 31 - 72 - - - - - 0 None
2018-04-22 17:00 40 31 - 69 - - - - - 0 None
2018-04-22 16:00 40 31 - 69 - - - - - 0 None
2018-04-22 15:00 39 29 - 66 - - - - - 0 None
2018-04-22 14:00 40 28 - 62 - - - - - 0 None
2018-04-22 13:00 37 27 - 69 - - - - - 0 None
2018-04-22 12:00 36 27 - 67 - - - - - 0 None
2018-04-22 11:00 30 27 - 88 - - - - - 0 None
2018-04-22 10:00 31 27 - 83 - - - - - 0 None
2018-04-22 09:00 30 27 - 87 - - - - - 0 None
2018-04-22 08:00 31 27 - 86 - - - - - 0 None
2018-04-22 07:00 31 27 - 85 - - - - - 0 None
2018-04-22 06:00 30 27 - 87 - - - - - 0 None
2018-04-22 05:00 31 27 - 84 - - - - - 0 None
2018-04-22 04:00 31 26 - 81 - - - - - 0 None
2018-04-22 03:00 31 27 - 85 - - - - - 0 None
2018-04-22 02:00 31 27 - 84 - - - - - 0 None

Support USWX by starting your Amazon purchase here.